sensor_id;sensor_type;location;lat;lon;timestamp;P1;durP1;ratioP1;P2;durP2;ratioP2
20792;SDS011;10556;-33.662;151.094;2023-05-21T00:02:42;1.47;;;0.27;;
20792;SDS011;10556;-33.662;151.094;2023-05-21T00:07:44;0.40;;;0.20;;
20792;SDS011;10556;-33.662;151.094;2023-05-21T00:12:45;0.50;;;0.17;;
20792;SDS011;10556;-33.662;151.094;2023-05-21T00:17:48;1.97;;;0.30;;
20792;SDS011;10556;-33.662;151.094;2023-05-21T00:22:49;0.50;;;0.10;;
20792;SDS011;10556;-33.662;151.094;2023-05-21T00:27:50;1.37;;;0.20;;
20792;SDS011;10556;-33.662;151.094;2023-05-21T00:32:54;1.73;;;0.30;;
20792;SDS011;10556;-33.662;151.094;2023-05-21T00:37:55;1.50;;;0.20;;
20792;SDS011;10556;-33.662;151.094;2023-05-21T00:42:56;1.30;;;0.20;;
20792;SDS011;10556;-33.662;151.094;2023-05-21T00:47:59;1.40;;;0.37;;
20792;SDS011;10556;-33.662;151.094;2023-05-21T00:53:00;1.87;;;0.20;;
20792;SDS011;10556;-33.662;151.094;2023-05-21T00:58:02;1.50;;;0.20;;
20792;SDS011;10556;-33.662;151.094;2023-05-21T01:03:05;1.20;;;0.23;;
20792;SDS011;10556;-33.662;151.094;2023-05-21T01:08:06;1.47;;;0.30;;
20792;SDS011;10556;-33.662;151.094;2023-05-21T01:13:07;0.40;;;0.10;;
20792;SDS011;10556;-33.662;151.094;2023-05-21T01:18:11;0.93;;;0.30;;
20792;SDS011;10556;-33.662;151.094;2023-05-21T01:23:14;0.60;;;0.10;;
20792;SDS011;10556;-33.662;151.094;2023-05-21T01:28:15;0.10;;;0.00;;
20792;SDS011;10556;-33.662;151.094;2023-05-21T01:33:18;0.53;;;0.13;;
20792;SDS011;10556;-33.662;151.094;2023-05-21T01:38:23;0.60;;;0.20;;
20792;SDS011;10556;-33.662;151.094;2023-05-21T01:43:26;1.13;;;0.20;;
20792;SDS011;10556;-33.662;151.094;2023-05-21T01:48:28;2.90;;;0.10;;
20792;SDS011;10556;-33.662;151.094;2023-05-21T01:53:31;0.47;;;0.20;;
20792;SDS011;10556;-33.662;151.094;2023-05-21T01:58:32;1.70;;;0.30;;
20792;SDS011;10556;-33.662;151.094;2023-05-21T02:03:33;2.10;;;1.20;;
20792;SDS011;10556;-33.662;151.094;2023-05-21T02:08:36;0.50;;;0.30;;
20792;SDS011;10556;-33.662;151.094;2023-05-21T02:13:38;0.30;;;0.20;;
20792;SDS011;10556;-33.662;151.094;2023-05-21T02:18:39;1.83;;;0.20;;
20792;SDS011;10556;-33.662;151.094;2023-05-21T02:23:42;1.10;;;0.30;;
20792;SDS011;10556;-33.662;151.094;2023-05-21T02:28:44;0.67;;;0.10;;
20792;SDS011;10556;-33.662;151.094;2023-05-21T02:33:45;0.10;;;0.10;;
20792;SDS011;10556;-33.662;151.094;2023-05-21T02:38:48;0.20;;;0.00;;
20792;SDS011;10556;-33.662;151.094;2023-05-21T02:43:49;1.10;;;0.10;;
20792;SDS011;10556;-33.662;151.094;2023-05-21T02:48:50;0.23;;;0.10;;
20792;SDS011;10556;-33.662;151.094;2023-05-21T02:53:53;0.10;;;0.07;;
20792;SDS011;10556;-33.662;151.094;2023-05-21T02:58:55;0.00;;;0.00;;
20792;SDS011;10556;-33.662;151.094;2023-05-21T03:03:56;0.10;;;0.10;;
20792;SDS011;10556;-33.662;151.094;2023-05-21T03:08:59;1.20;;;0.00;;
20792;SDS011;10556;-33.662;151.094;2023-05-21T03:14:00;4.83;;;3.73;;
20792;SDS011;10556;-33.662;151.094;2023-05-21T03:19:02;3.03;;;2.03;;
20792;SDS011;10556;-33.662;151.094;2023-05-21T03:24:05;1.70;;;1.20;;
20792;SDS011;10556;-33.662;151.094;2023-05-21T03:29:06;1.00;;;0.80;;
20792;SDS011;10556;-33.662;151.094;2023-05-21T03:34:08;1.17;;;0.40;;
20792;SDS011;10556;-33.662;151.094;2023-05-21T03:39:11;0.37;;;0.20;;
20792;SDS011;10556;-33.662;151.094;2023-05-21T03:44:12;0.57;;;0.40;;
20792;SDS011;10556;-33.662;151.094;2023-05-21T03:49:13;0.10;;;0.10;;
20792;SDS011;10556;-33.662;151.094;2023-05-21T03:54:17;0.17;;;0.10;;
20792;SDS011;10556;-33.662;151.094;2023-05-21T03:59:18;0.20;;;0.00;;
20792;SDS011;10556;-33.662;151.094;2023-05-21T04:04:20;0.53;;;0.10;;
20792;SDS011;10556;-33.662;151.094;2023-05-21T04:09:23;0.20;;;0.10;;
20792;SDS011;10556;-33.662;151.094;2023-05-21T04:14:24;0.00;;;0.00;;
20792;SDS011;10556;-33.662;151.094;2023-05-21T04:19:25;2.23;;;0.10;;
20792;SDS011;10556;-33.662;151.094;2023-05-21T04:24:28;1.80;;;0.10;;
20792;SDS011;10556;-33.662;151.094;2023-05-21T04:29:30;1.90;;;0.10;;
20792;SDS011;10556;-33.662;151.094;2023-05-21T04:34:31;0.00;;;0.00;;
20792;SDS011;10556;-33.662;151.094;2023-05-21T04:39:34;0.10;;;0.10;;
20792;SDS011;10556;-33.662;151.094;2023-05-21T04:44:35;1.80;;;0.10;;
20792;SDS011;10556;-33.662;151.094;2023-05-21T04:49:36;0.03;;;0.00;;
20792;SDS011;10556;-33.662;151.094;2023-05-21T04:54:40;0.60;;;0.00;;
20792;SDS011;10556;-33.662;151.094;2023-05-21T04:59:41;0.30;;;0.00;;
20792;SDS011;10556;-33.662;151.094;2023-05-21T05:04:42;0.10;;;0.10;;
20792;SDS011;10556;-33.662;151.094;2023-05-21T05:09:45;0.00;;;0.00;;
20792;SDS011;10556;-33.662;151.094;2023-05-21T05:14:46;0.67;;;0.10;;
20792;SDS011;10556;-33.662;151.094;2023-05-21T05:19:50;0.53;;;0.13;;
20792;SDS011;10556;-33.662;151.094;2023-05-21T05:24:53;0.10;;;0.00;;
20792;SDS011;10556;-33.662;151.094;2023-05-21T05:29:54;0.10;;;0.00;;
20792;SDS011;10556;-33.662;151.094;2023-05-21T05:34:56;0.00;;;0.00;;
20792;SDS011;10556;-33.662;151.094;2023-05-21T05:39:59;0.43;;;0.17;;
20792;SDS011;10556;-33.662;151.094;2023-05-21T05:45:00;0.40;;;0.13;;
20792;SDS011;10556;-33.662;151.094;2023-05-21T05:50:01;0.50;;;0.20;;
20792;SDS011;10556;-33.662;151.094;2023-05-21T05:55:05;1.60;;;0.10;;
20792;SDS011;10556;-33.662;151.094;2023-05-21T06:00:07;0.17;;;0.10;;
20792;SDS011;10556;-33.662;151.094;2023-05-21T06:05:08;0.83;;;0.27;;
20792;SDS011;10556;-33.662;151.094;2023-05-21T06:10:11;0.30;;;0.10;;
20792;SDS011;10556;-33.662;151.094;2023-05-21T06:15:13;2.17;;;0.20;;
20792;SDS011;10556;-33.662;151.094;2023-05-21T06:20:14;0.57;;;0.50;;
20792;SDS011;10556;-33.662;151.094;2023-05-21T06:25:17;0.77;;;0.10;;
20792;SDS011;10556;-33.662;151.094;2023-05-21T06:30:19;0.97;;;0.10;;
20792;SDS011;10556;-33.662;151.094;2023-05-21T06:35:20;0.27;;;0.23;;
20792;SDS011;10556;-33.662;151.094;2023-05-21T06:40:23;0.10;;;0.10;;
20792;SDS011;10556;-33.662;151.094;2023-05-21T06:45:24;0.10;;;0.10;;
20792;SDS011;10556;-33.662;151.094;2023-05-21T06:50:25;0.20;;;0.10;;
20792;SDS011;10556;-33.662;151.094;2023-05-21T06:55:28;0.63;;;0.17;;
20792;SDS011;10556;-33.662;151.094;2023-05-21T07:00:30;1.20;;;0.80;;
20792;SDS011;10556;-33.662;151.094;2023-05-21T07:05:31;2.77;;;1.63;;
20792;SDS011;10556;-33.662;151.094;2023-05-21T07:10:34;1.53;;;0.90;;
20792;SDS011;10556;-33.662;151.094;2023-05-21T07:15:35;1.60;;;0.80;;
20792;SDS011;10556;-33.662;151.094;2023-05-21T07:20:36;2.07;;;1.00;;
20792;SDS011;10556;-33.662;151.094;2023-05-21T07:25:40;1.77;;;1.07;;
20792;SDS011;10556;-33.662;151.094;2023-05-21T07:30:41;2.70;;;1.30;;
20792;SDS011;10556;-33.662;151.094;2023-05-21T07:35:42;1.77;;;0.80;;
20792;SDS011;10556;-33.662;151.094;2023-05-21T07:40:45;1.90;;;0.90;;
20792;SDS011;10556;-33.662;151.094;2023-05-21T07:45:46;0.80;;;0.60;;
20792;SDS011;10556;-33.662;151.094;2023-05-21T07:50:48;1.60;;;0.90;;
20792;SDS011;10556;-33.662;151.094;2023-05-21T07:55:51;0.70;;;0.50;;
20792;SDS011;10556;-33.662;151.094;2023-05-21T08:00:52;1.27;;;0.60;;
20792;SDS011;10556;-33.662;151.094;2023-05-21T08:05:53;0.40;;;0.33;;
20792;SDS011;10556;-33.662;151.094;2023-05-21T08:10:56;0.30;;;0.23;;
20792;SDS011;10556;-33.662;151.094;2023-05-21T08:15:58;0.53;;;0.40;;
20792;SDS011;10556;-33.662;151.094;2023-05-21T08:20:59;0.50;;;0.20;;
20792;SDS011;10556;-33.662;151.094;2023-05-21T08:26:02;0.33;;;0.20;;
20792;SDS011;10556;-33.662;151.094;2023-05-21T08:31:03;0.20;;;0.20;;
20792;SDS011;10556;-33.662;151.094;2023-05-21T08:36:05;0.50;;;0.20;;
20792;SDS011;10556;-33.662;151.094;2023-05-21T08:41:09;0.40;;;0.23;;
20792;SDS011;10556;-33.662;151.094;2023-05-21T08:46:11;0.50;;;0.20;;
20792;SDS011;10556;-33.662;151.094;2023-05-21T08:51:12;0.30;;;0.20;;
20792;SDS011;10556;-33.662;151.094;2023-05-21T08:56:16;1.20;;;0.30;;
20792;SDS011;10556;-33.662;151.094;2023-05-21T09:01:17;2.10;;;0.30;;
20792;SDS011;10556;-33.662;151.094;2023-05-21T09:06:19;1.20;;;0.20;;
20792;SDS011;10556;-33.662;151.094;2023-05-21T09:11:22;0.37;;;0.30;;
20792;SDS011;10556;-33.662;151.094;2023-05-21T09:16:23;0.23;;;0.10;;
20792;SDS011;10556;-33.662;151.094;2023-05-21T09:21:25;0.93;;;0.30;;
20792;SDS011;10556;-33.662;151.094;2023-05-21T09:26:28;0.83;;;0.30;;
20792;SDS011;10556;-33.662;151.094;2023-05-21T09:31:29;0.50;;;0.30;;
20792;SDS011;10556;-33.662;151.094;2023-05-21T09:36:30;0.80;;;0.40;;
20792;SDS011;10556;-33.662;151.094;2023-05-21T09:41:34;0.63;;;0.50;;
20792;SDS011;10556;-33.662;151.094;2023-05-21T09:46:38;0.50;;;0.30;;
20792;SDS011;10556;-33.662;151.094;2023-05-21T09:51:39;0.70;;;0.30;;
20792;SDS011;10556;-33.662;151.094;2023-05-21T09:56:45;0.43;;;0.20;;
20792;SDS011;10556;-33.662;151.094;2023-05-21T10:01:46;2.10;;;0.43;;
20792;SDS011;10556;-33.662;151.094;2023-05-21T10:06:50;0.67;;;0.30;;
20792;SDS011;10556;-33.662;151.094;2023-05-21T10:11:54;2.87;;;0.60;;
20792;SDS011;10556;-33.662;151.094;2023-05-21T10:16:56;0.60;;;0.30;;
20792;SDS011;10556;-33.662;151.094;2023-05-21T10:21:58;0.20;;;0.20;;
20792;SDS011;10556;-33.662;151.094;2023-05-21T10:27:02;0.60;;;0.40;;
20792;SDS011;10556;-33.662;151.094;2023-05-21T10:32:03;1.63;;;0.20;;
20792;SDS011;10556;-33.662;151.094;2023-05-21T10:37:05;0.70;;;0.37;;
20792;SDS011;10556;-33.662;151.094;2023-05-21T10:42:11;0.87;;;0.40;;
20792;SDS011;10556;-33.662;151.094;2023-05-21T10:47:23;2.17;;;0.47;;
20792;SDS011;10556;-33.662;151.094;2023-05-21T10:52:33;1.03;;;0.60;;
20792;SDS011;10556;-33.662;151.094;2023-05-21T10:57:49;2.30;;;0.50;;
20792;SDS011;10556;-33.662;151.094;2023-05-21T11:02:56;1.37;;;0.40;;
20792;SDS011;10556;-33.662;151.094;2023-05-21T11:07:57;1.00;;;0.37;;
20792;SDS011;10556;-33.662;151.094;2023-05-21T11:13:12;0.30;;;0.30;;
20792;SDS011;10556;-33.662;151.094;2023-05-21T11:18:13;2.27;;;0.40;;
20792;SDS011;10556;-33.662;151.094;2023-05-21T11:23:14;1.20;;;0.50;;
20792;SDS011;10556;-33.662;151.094;2023-05-21T11:28:17;0.70;;;0.40;;
20792;SDS011;10556;-33.662;151.094;2023-05-21T11:33:32;0.40;;;0.30;;
20792;SDS011;10556;-33.662;151.094;2023-05-21T11:38:33;1.47;;;0.53;;
20792;SDS011;10556;-33.662;151.094;2023-05-21T11:43:42;1.43;;;0.57;;
20792;SDS011;10556;-33.662;151.094;2023-05-21T11:48:43;2.10;;;0.60;;
20792;SDS011;10556;-33.662;151.094;2023-05-21T11:53:45;1.60;;;0.80;;
20792;SDS011;10556;-33.662;151.094;2023-05-21T11:58:48;0.87;;;0.70;;
20792;SDS011;10556;-33.662;151.094;2023-05-21T12:03:49;1.60;;;0.90;;
20792;SDS011;10556;-33.662;151.094;2023-05-21T12:08:50;2.47;;;1.40;;
20792;SDS011;10556;-33.662;151.094;2023-05-21T12:13:53;4.50;;;2.20;;
20792;SDS011;10556;-33.662;151.094;2023-05-21T12:18:55;4.57;;;2.27;;
20792;SDS011;10556;-33.662;151.094;2023-05-21T12:23:56;4.27;;;2.17;;
20792;SDS011;10556;-33.662;151.094;2023-05-21T12:28:59;3.77;;;1.20;;
20792;SDS011;10556;-33.662;151.094;2023-05-21T12:34:01;4.37;;;1.10;;
20792;SDS011;10556;-33.662;151.094;2023-05-21T12:39:02;1.73;;;0.93;;
20792;SDS011;10556;-33.662;151.094;2023-05-21T12:44:05;2.30;;;0.80;;
20792;SDS011;10556;-33.662;151.094;2023-05-21T12:49:06;1.03;;;0.60;;
20792;SDS011;10556;-33.662;151.094;2023-05-21T12:54:11;1.57;;;0.70;;
20792;SDS011;10556;-33.662;151.094;2023-05-21T12:59:14;2.07;;;1.00;;
20792;SDS011;10556;-33.662;151.094;2023-05-21T13:04:18;3.63;;;0.93;;
20792;SDS011;10556;-33.662;151.094;2023-05-21T13:09:19;1.73;;;0.77;;
20792;SDS011;10556;-33.662;151.094;2023-05-21T13:14:22;2.40;;;0.97;;
20792;SDS011;10556;-33.662;151.094;2023-05-21T13:19:23;1.70;;;0.90;;
20792;SDS011;10556;-33.662;151.094;2023-05-21T13:24:25;4.67;;;0.80;;
20792;SDS011;10556;-33.662;151.094;2023-05-21T13:29:28;2.03;;;0.70;;
20792;SDS011;10556;-33.662;151.094;2023-05-21T13:34:29;1.43;;;0.60;;
20792;SDS011;10556;-33.662;151.094;2023-05-21T13:39:30;1.50;;;0.80;;
20792;SDS011;10556;-33.662;151.094;2023-05-21T13:44:33;1.70;;;0.60;;
20792;SDS011;10556;-33.662;151.094;2023-05-21T13:49:35;1.53;;;0.67;;
20792;SDS011;10556;-33.662;151.094;2023-05-21T13:54:36;2.67;;;0.70;;
20792;SDS011;10556;-33.662;151.094;2023-05-21T13:59:39;4.33;;;0.80;;
20792;SDS011;10556;-33.662;151.094;2023-05-21T14:04:40;1.10;;;0.50;;
20792;SDS011;10556;-33.662;151.094;2023-05-21T14:09:42;1.10;;;0.50;;
20792;SDS011;10556;-33.662;151.094;2023-05-21T14:14:45;1.40;;;0.60;;
20792;SDS011;10556;-33.662;151.094;2023-05-21T14:19:46;1.77;;;0.60;;
20792;SDS011;10556;-33.662;151.094;2023-05-21T14:24:47;1.97;;;0.57;;
20792;SDS011;10556;-33.662;151.094;2023-05-21T14:29:50;1.77;;;0.80;;
20792;SDS011;10556;-33.662;151.094;2023-05-21T14:34:52;2.37;;;0.60;;
20792;SDS011;10556;-33.662;151.094;2023-05-21T14:39:53;0.90;;;0.50;;
20792;SDS011;10556;-33.662;151.094;2023-05-21T14:44:56;0.73;;;0.37;;
20792;SDS011;10556;-33.662;151.094;2023-05-21T14:49:57;3.30;;;1.03;;
20792;SDS011;10556;-33.662;151.094;2023-05-21T14:54:59;1.23;;;0.60;;
20792;SDS011;10556;-33.662;151.094;2023-05-21T15:00:02;0.50;;;0.40;;
20792;SDS011;10556;-33.662;151.094;2023-05-21T15:05:04;1.23;;;0.30;;
20792;SDS011;10556;-33.662;151.094;2023-05-21T15:10:06;1.33;;;0.30;;
20792;SDS011;10556;-33.662;151.094;2023-05-21T15:15:09;0.37;;;0.30;;
20792;SDS011;10556;-33.662;151.094;2023-05-21T15:20:11;0.53;;;0.37;;
20792;SDS011;10556;-33.662;151.094;2023-05-21T15:25:12;0.57;;;0.23;;
20792;SDS011;10556;-33.662;151.094;2023-05-21T15:30:15;1.80;;;0.37;;
20792;SDS011;10556;-33.662;151.094;2023-05-21T15:35:16;1.53;;;0.40;;
20792;SDS011;10556;-33.662;151.094;2023-05-21T15:40:17;3.40;;;0.50;;
20792;SDS011;10556;-33.662;151.094;2023-05-21T15:45:21;1.50;;;0.57;;
20792;SDS011;10556;-33.662;151.094;2023-05-21T15:50:22;3.03;;;0.60;;
20792;SDS011;10556;-33.662;151.094;2023-05-21T15:55:23;1.47;;;0.33;;
20792;SDS011;10556;-33.662;151.094;2023-05-21T16:00:26;1.00;;;0.30;;
20792;SDS011;10556;-33.662;151.094;2023-05-21T16:05:27;0.80;;;0.33;;
20792;SDS011;10556;-33.662;151.094;2023-05-21T16:10:29;1.10;;;0.40;;
20792;SDS011;10556;-33.662;151.094;2023-05-21T16:15:32;1.97;;;0.50;;
20792;SDS011;10556;-33.662;151.094;2023-05-21T16:20:33;1.27;;;0.50;;
20792;SDS011;10556;-33.662;151.094;2023-05-21T16:25:34;2.87;;;0.40;;
20792;SDS011;10556;-33.662;151.094;2023-05-21T16:30:37;1.80;;;0.30;;
20792;SDS011;10556;-33.662;151.094;2023-05-21T16:35:39;3.87;;;0.60;;
20792;SDS011;10556;-33.662;151.094;2023-05-21T16:40:40;1.50;;;0.93;;
20792;SDS011;10556;-33.662;151.094;2023-05-21T16:45:43;1.70;;;1.07;;
20792;SDS011;10556;-33.662;151.094;2023-05-21T16:50:45;2.57;;;0.90;;
20792;SDS011;10556;-33.662;151.094;2023-05-21T16:55:46;2.03;;;0.90;;
20792;SDS011;10556;-33.662;151.094;2023-05-21T17:00:49;2.73;;;0.90;;
20792;SDS011;10556;-33.662;151.094;2023-05-21T17:05:51;1.23;;;0.97;;
20792;SDS011;10556;-33.662;151.094;2023-05-21T17:10:52;1.50;;;1.07;;
20792;SDS011;10556;-33.662;151.094;2023-05-21T17:15:55;1.70;;;1.10;;
20792;SDS011;10556;-33.662;151.094;2023-05-21T17:20:56;3.03;;;1.07;;
20792;SDS011;10556;-33.662;151.094;2023-05-21T17:25:58;2.57;;;0.83;;
20792;SDS011;10556;-33.662;151.094;2023-05-21T17:31:01;1.90;;;1.00;;
20792;SDS011;10556;-33.662;151.094;2023-05-21T17:36:02;2.63;;;0.90;;
20792;SDS011;10556;-33.662;151.094;2023-05-21T17:41:03;4.60;;;1.00;;
20792;SDS011;10556;-33.662;151.094;2023-05-21T17:46:07;2.10;;;0.90;;
20792;SDS011;10556;-33.662;151.094;2023-05-21T17:51:18;2.20;;;0.90;;
20792;SDS011;10556;-33.662;151.094;2023-05-21T17:56:19;0.97;;;0.50;;
20792;SDS011;10556;-33.662;151.094;2023-05-21T18:01:22;2.77;;;0.70;;
20792;SDS011;10556;-33.662;151.094;2023-05-21T18:06:23;3.57;;;0.87;;
20792;SDS011;10556;-33.662;151.094;2023-05-21T18:11:25;2.17;;;0.90;;
20792;SDS011;10556;-33.662;151.094;2023-05-21T18:16:28;2.23;;;0.80;;
20792;SDS011;10556;-33.662;151.094;2023-05-21T18:21:29;1.57;;;0.77;;
20792;SDS011;10556;-33.662;151.094;2023-05-21T18:26:30;1.10;;;0.70;;
20792;SDS011;10556;-33.662;151.094;2023-05-21T18:31:33;0.73;;;0.50;;
20792;SDS011;10556;-33.662;151.094;2023-05-21T18:36:35;2.10;;;0.70;;
20792;SDS011;10556;-33.662;151.094;2023-05-21T18:41:37;1.40;;;0.60;;
20792;SDS011;10556;-33.662;151.094;2023-05-21T18:46:40;0.50;;;0.40;;
20792;SDS011;10556;-33.662;151.094;2023-05-21T18:51:41;1.87;;;0.40;;
20792;SDS011;10556;-33.662;151.094;2023-05-21T18:56:42;0.30;;;0.30;;
20792;SDS011;10556;-33.662;151.094;2023-05-21T19:01:45;0.40;;;0.27;;
20792;SDS011;10556;-33.662;151.094;2023-05-21T19:06:47;1.03;;;0.30;;
20792;SDS011;10556;-33.662;151.094;2023-05-21T19:11:48;0.50;;;0.20;;
20792;SDS011;10556;-33.662;151.094;2023-05-21T19:16:51;2.70;;;0.40;;
20792;SDS011;10556;-33.662;151.094;2023-05-21T19:21:52;1.23;;;0.40;;
20792;SDS011;10556;-33.662;151.094;2023-05-21T19:26:54;0.90;;;0.27;;
20792;SDS011;10556;-33.662;151.094;2023-05-21T19:31:57;1.10;;;0.40;;
20792;SDS011;10556;-33.662;151.094;2023-05-21T19:36:58;2.13;;;0.40;;
20792;SDS011;10556;-33.662;151.094;2023-05-21T19:41:59;1.07;;;0.63;;
20792;SDS011;10556;-33.662;151.094;2023-05-21T19:47:02;0.40;;;0.27;;
20792;SDS011;10556;-33.662;151.094;2023-05-21T19:52:04;0.83;;;0.40;;
20792;SDS011;10556;-33.662;151.094;2023-05-21T19:57:05;2.23;;;0.57;;
20792;SDS011;10556;-33.662;151.094;2023-05-21T20:02:09;1.10;;;0.47;;
20792;SDS011;10556;-33.662;151.094;2023-05-21T20:07:11;0.83;;;0.50;;
20792;SDS011;10556;-33.662;151.094;2023-05-21T20:12:12;0.90;;;0.43;;
20792;SDS011;10556;-33.662;151.094;2023-05-21T20:17:15;2.30;;;0.47;;
20792;SDS011;10556;-33.662;151.094;2023-05-21T20:22:16;1.30;;;0.50;;
20792;SDS011;10556;-33.662;151.094;2023-05-21T20:27:18;0.90;;;0.40;;
20792;SDS011;10556;-33.662;151.094;2023-05-21T20:32:21;0.57;;;0.27;;
20792;SDS011;10556;-33.662;151.094;2023-05-21T20:37:22;1.23;;;0.40;;
20792;SDS011;10556;-33.662;151.094;2023-05-21T20:42:23;2.37;;;0.40;;
20792;SDS011;10556;-33.662;151.094;2023-05-21T20:47:27;0.40;;;0.30;;
20792;SDS011;10556;-33.662;151.094;2023-05-21T20:52:28;0.40;;;0.30;;
20792;SDS011;10556;-33.662;151.094;2023-05-21T20:57:29;2.13;;;0.30;;
20792;SDS011;10556;-33.662;151.094;2023-05-21T21:02:32;2.20;;;0.37;;
20792;SDS011;10556;-33.662;151.094;2023-05-21T21:07:34;0.97;;;0.30;;
20792;SDS011;10556;-33.662;151.094;2023-05-21T21:12:35;0.77;;;0.30;;
20792;SDS011;10556;-33.662;151.094;2023-05-21T21:17:38;0.60;;;0.30;;
20792;SDS011;10556;-33.662;151.094;2023-05-21T21:22:39;2.63;;;0.40;;
20792;SDS011;10556;-33.662;151.094;2023-05-21T21:27:41;0.40;;;0.30;;
20792;SDS011;10556;-33.662;151.094;2023-05-21T21:32:44;1.20;;;0.30;;
20792;SDS011;10556;-33.662;151.094;2023-05-21T21:37:45;1.37;;;0.30;;
20792;SDS011;10556;-33.662;151.094;2023-05-21T21:42:46;2.13;;;0.40;;
20792;SDS011;10556;-33.662;151.094;2023-05-21T21:47:49;0.67;;;0.40;;
20792;SDS011;10556;-33.662;151.094;2023-05-21T21:52:51;1.60;;;0.30;;
20792;SDS011;10556;-33.662;151.094;2023-05-21T21:57:52;0.67;;;0.13;;
20792;SDS011;10556;-33.662;151.094;2023-05-21T22:02:55;1.17;;;0.50;;
20792;SDS011;10556;-33.662;151.094;2023-05-21T22:07:56;0.77;;;0.33;;
20792;SDS011;10556;-33.662;151.094;2023-05-21T22:12:57;2.27;;;0.30;;
20792;SDS011;10556;-33.662;151.094;2023-05-21T22:18:00;1.97;;;1.27;;
20792;SDS011;10556;-33.662;151.094;2023-05-21T22:23:02;1.77;;;0.40;;
20792;SDS011;10556;-33.662;151.094;2023-05-21T22:28:03;1.03;;;0.30;;
20792;SDS011;10556;-33.662;151.094;2023-05-21T22:33:06;0.87;;;0.30;;
20792;SDS011;10556;-33.662;151.094;2023-05-21T22:38:07;0.77;;;0.20;;
20792;SDS011;10556;-33.662;151.094;2023-05-21T22:43:09;0.20;;;0.10;;
20792;SDS011;10556;-33.662;151.094;2023-05-21T22:48:12;0.90;;;0.30;;
20792;SDS011;10556;-33.662;151.094;2023-05-21T22:53:13;0.50;;;0.20;;
20792;SDS011;10556;-33.662;151.094;2023-05-21T22:58:14;0.30;;;0.30;;
20792;SDS011;10556;-33.662;151.094;2023-05-21T23:03:17;0.57;;;0.40;;
20792;SDS011;10556;-33.662;151.094;2023-05-21T23:08:19;0.40;;;0.27;;
20792;SDS011;10556;-33.662;151.094;2023-05-21T23:13:20;1.10;;;0.30;;
20792;SDS011;10556;-33.662;151.094;2023-05-21T23:18:23;1.80;;;0.43;;
20792;SDS011;10556;-33.662;151.094;2023-05-21T23:23:24;0.40;;;0.27;;
20792;SDS011;10556;-33.662;151.094;2023-05-21T23:28:25;0.43;;;0.20;;
20792;SDS011;10556;-33.662;151.094;2023-05-21T23:33:29;1.70;;;0.30;;
20792;SDS011;10556;-33.662;151.094;2023-05-21T23:38:30;0.63;;;0.30;;
20792;SDS011;10556;-33.662;151.094;2023-05-21T23:43:31;0.73;;;0.40;;
20792;SDS011;10556;-33.662;151.094;2023-05-21T23:48:34;1.10;;;0.40;;
20792;SDS011;10556;-33.662;151.094;2023-05-21T23:53:36;0.33;;;0.30;;
20792;SDS011;10556;-33.662;151.094;2023-05-21T23:58:37;2.00;;;0.50;;
